createdAt,value
2022-09-24T00:00:42.625Z,10.00
2022-09-24T00:03:15.597Z,10.00
2022-09-24T00:05:45.900Z,10.00
2022-09-24T00:08:18.696Z,10.10
2022-09-24T00:10:50.885Z,10.00
2022-09-24T00:13:21.786Z,10.00
2022-09-24T00:15:53.649Z,10.00
2022-09-24T00:18:26.465Z,10.00
2022-09-24T00:20:56.613Z,9.90
2022-09-24T00:23:27.276Z,9.90
2022-09-24T00:26:09.820Z,9.90
2022-09-24T00:28:40.510Z,9.80
2022-09-24T00:31:11.244Z,9.80
2022-09-24T00:33:44.062Z,9.80
2022-09-24T00:36:15.769Z,9.80
2022-09-24T00:38:45.915Z,9.80
2022-09-24T00:41:16.268Z,9.80
2022-09-24T00:43:46.454Z,9.80
2022-09-24T00:46:22.593Z,9.70
2022-09-24T00:49:00.083Z,9.70
2022-09-24T00:51:33.396Z,9.60
2022-09-24T00:54:09.795Z,9.60
2022-09-24T00:56:43.119Z,9.70
2022-09-24T00:59:17.480Z,9.60
2022-09-24T01:01:48.547Z,9.60
2022-09-24T01:04:23.227Z,9.60
2022-09-24T01:06:53.408Z,9.60
2022-09-24T01:09:25.921Z,9.60
2022-09-24T01:12:05.411Z,9.50
2022-09-24T01:14:57.085Z,9.50
2022-09-24T01:17:37.284Z,9.50
2022-09-24T01:20:43.665Z,9.50
2022-09-24T01:23:45.052Z,9.50
2022-09-24T01:26:41.101Z,9.50
2022-09-24T01:29:32.302Z,9.50
2022-09-24T01:32:08.596Z,9.50
2022-09-24T01:34:45.292Z,9.50
2022-09-24T01:37:19.363Z,9.50
2022-09-24T01:39:51.682Z,9.50
2022-09-24T01:42:23.216Z,9.60
2022-09-24T01:44:57.921Z,9.50
2022-09-24T01:47:34.926Z,9.60
2022-09-24T01:50:06.744Z,9.60
2022-09-24T01:52:45.249Z,9.50
2022-09-24T01:55:19.850Z,9.50
2022-09-24T01:57:54.980Z,9.50
2022-09-24T02:00:28.148Z,9.50
2022-09-24T02:03:01.875Z,9.40
2022-09-24T02:05:37.619Z,9.50
2022-09-24T02:08:14.160Z,9.50
2022-09-24T02:10:50.999Z,9.50
2022-09-24T02:13:26.568Z,9.50
2022-09-24T02:16:05.929Z,9.40
2022-09-24T02:18:41.786Z,9.50
2022-09-24T02:21:16.391Z,9.50
2022-09-24T02:23:50.960Z,9.50
2022-09-24T02:26:21.303Z,9.50
2022-09-24T02:28:52.060Z,9.50
2022-09-24T02:31:30.611Z,9.60
2022-09-24T02:34:18.097Z,9.60
2022-09-24T02:36:48.176Z,9.60
2022-09-24T02:39:18.982Z,9.60
2022-09-24T02:41:50.631Z,9.60
2022-09-24T02:44:21.485Z,9.60
2022-09-24T02:46:54.612Z,9.60
2022-09-24T02:49:24.790Z,9.60
2022-09-24T02:51:55.874Z,9.60
2022-09-24T02:54:26.223Z,9.60
2022-09-24T02:56:56.956Z,9.60
2022-09-24T02:59:27.136Z,9.70
2022-09-24T03:02:00.085Z,9.70
2022-09-24T03:04:30.915Z,9.60
2022-09-24T03:07:01.088Z,9.60
2022-09-24T03:09:31.179Z,9.70
2022-09-24T03:12:01.820Z,9.70
2022-09-24T03:14:31.903Z,9.70
2022-09-24T03:17:04.678Z,9.70
2022-09-24T03:19:34.819Z,9.70
2022-09-24T03:22:05.045Z,9.70
2022-09-24T03:24:35.182Z,9.80
2022-09-24T03:27:05.300Z,9.80
2022-09-24T03:29:47.924Z,9.80
2022-09-24T03:32:21.692Z,9.80
2022-09-24T03:34:51.858Z,9.80
2022-09-24T03:37:22.085Z,9.90
2022-09-24T03:39:52.170Z,9.90
2022-09-24T03:42:22.332Z,9.90
2022-09-24T03:44:54.623Z,9.80
2022-09-24T03:47:27.290Z,9.80
2022-09-24T03:49:57.498Z,9.80
2022-09-24T03:52:27.846Z,9.80
2022-09-24T03:54:58.054Z,9.80
2022-09-24T03:57:28.141Z,9.80
2022-09-24T03:59:58.753Z,9.80
2022-09-24T04:02:31.683Z,9.80
2022-09-24T04:05:01.904Z,9.80
2022-09-24T04:07:32.337Z,9.70
2022-09-24T04:10:02.645Z,9.80
2022-09-24T04:12:32.975Z,9.70
2022-09-24T04:15:03.556Z,9.70
2022-09-24T04:17:36.503Z,9.80
2022-09-24T04:20:07.088Z,9.60
2022-09-24T04:22:37.327Z,9.70
2022-09-24T04:25:13.983Z,9.60
2022-09-24T04:27:45.257Z,9.60
2022-09-24T04:30:17.772Z,9.70
2022-09-24T04:32:51.657Z,9.60
2022-09-24T04:35:22.552Z,9.60
2022-09-24T04:37:53.206Z,9.60
2022-09-24T04:40:23.444Z,9.70
2022-09-24T04:42:53.795Z,9.60
2022-09-24T04:45:25.341Z,9.60
2022-09-24T04:47:58.937Z,9.60
2022-09-24T04:50:33.533Z,9.60
2022-09-24T04:53:04.901Z,9.60
2022-09-24T04:55:35.628Z,9.70
2022-09-24T04:58:06.076Z,9.70
2022-09-24T05:00:36.457Z,9.60
2022-09-24T05:03:09.328Z,9.70
2022-09-24T05:05:39.740Z,9.70
2022-09-24T05:08:10.223Z,9.70
2022-09-24T05:10:40.389Z,9.70
2022-09-24T05:13:10.993Z,9.70
2022-09-24T05:15:43.320Z,9.70
2022-09-24T05:18:16.534Z,9.70
2022-09-24T05:20:46.627Z,9.70
2022-09-24T05:23:17.007Z,9.70
2022-09-24T05:25:59.751Z,9.80
2022-09-24T05:28:30.305Z,9.80
2022-09-24T05:31:02.320Z,9.80
2022-09-24T05:33:36.356Z,9.80
2022-09-24T05:36:07.426Z,9.80
2022-09-24T05:38:41.473Z,9.80
2022-09-24T05:41:12.129Z,9.90
2022-09-24T05:43:43.256Z,9.90
2022-09-24T05:46:13.812Z,10.00
2022-09-24T05:48:46.719Z,10.00
2022-09-24T05:51:16.761Z,10.00
2022-09-24T05:53:46.912Z,10.00
2022-09-24T05:56:17.458Z,10.00
2022-09-24T05:58:47.682Z,10.00
2022-09-24T06:01:18.100Z,10.10
2022-09-24T06:03:51.203Z,10.10
2022-09-24T06:06:21.595Z,10.20
2022-09-24T06:08:52.062Z,10.20
2022-09-24T06:11:22.731Z,10.30
2022-09-24T06:13:53.281Z,10.30
2022-09-24T06:16:23.884Z,10.40
2022-09-24T06:18:56.844Z,10.50
2022-09-24T06:21:27.307Z,10.50
2022-09-24T06:23:57.495Z,10.50
2022-09-24T06:26:29.258Z,10.50
2022-09-24T06:29:04.584Z,10.50
2022-09-24T06:31:38.846Z,10.60
2022-09-24T06:34:12.191Z,10.60
2022-09-24T06:36:42.877Z,10.60
2022-09-24T06:39:13.405Z,10.60
2022-09-24T06:41:43.571Z,10.70
2022-09-24T06:44:13.959Z,10.70
2022-09-24T06:46:44.332Z,10.80
2022-09-24T06:49:17.416Z,10.80
2022-09-24T06:51:47.579Z,10.80
2022-09-24T06:54:18.370Z,10.90
2022-09-24T06:56:48.601Z,10.90
2022-09-24T06:59:19.000Z,10.90
2022-09-24T07:01:49.514Z,11.00
2022-09-24T07:04:22.555Z,11.00
2022-09-24T07:07:05.282Z,11.00
2022-09-24T07:09:36.528Z,10.90
2022-09-24T07:12:09.001Z,11.00
2022-09-24T07:14:41.600Z,11.00
2022-09-24T07:17:11.995Z,11.10
2022-09-24T07:19:45.249Z,11.10
2022-09-24T07:22:15.551Z,11.10
2022-09-24T07:24:45.754Z,11.10
2022-09-24T07:27:16.873Z,11.20
2022-09-24T07:29:46.921Z,11.20
2022-09-24T07:32:19.411Z,11.20
2022-09-24T07:34:54.354Z,11.30
2022-09-24T07:37:24.408Z,11.30
2022-09-24T07:39:54.670Z,11.30
2022-09-24T07:42:25.671Z,11.40
2022-09-24T07:44:55.750Z,11.30
2022-09-24T07:47:26.074Z,11.40
2022-09-24T07:49:59.530Z,11.40
2022-09-24T07:52:29.719Z,11.40
2022-09-24T07:54:59.965Z,11.40
2022-09-24T07:57:30.215Z,11.40
2022-09-24T08:00:00.617Z,11.50
2022-09-24T08:02:31.493Z,11.50
2022-09-24T08:05:04.371Z,11.60
2022-09-24T08:07:34.560Z,11.60
2022-09-24T08:10:04.677Z,11.60
2022-09-24T08:12:34.909Z,11.70
2022-09-24T08:15:05.001Z,11.70
2022-09-24T08:17:35.408Z,11.70
2022-09-24T08:20:09.814Z,11.80
2022-09-24T08:22:40.016Z,11.80
2022-09-24T08:25:11.136Z,11.80
2022-09-24T08:27:41.271Z,11.80
2022-09-24T08:30:14.395Z,11.80
2022-09-24T08:32:50.481Z,11.90
2022-09-24T08:35:23.223Z,11.90
2022-09-24T08:37:53.731Z,12.00
2022-09-24T08:40:29.876Z,12.00
2022-09-24T08:43:13.034Z,12.10
2022-09-24T08:46:01.765Z,12.10
2022-09-24T08:48:37.264Z,12.20
2022-09-24T08:51:18.010Z,12.20
2022-09-24T08:53:52.981Z,12.20
2022-09-24T08:56:28.436Z,12.20
2022-09-24T08:59:03.864Z,12.20
2022-09-24T09:01:42.897Z,12.40
2022-09-24T09:04:28.109Z,12.40
2022-09-24T09:07:19.829Z,12.50
2022-09-24T09:09:55.728Z,12.50
2022-09-24T09:12:30.547Z,12.60
2022-09-24T09:15:07.155Z,12.60
2022-09-24T09:17:45.897Z,12.70
2022-09-24T09:20:22.434Z,12.70
2022-09-24T09:22:56.257Z,12.70
2022-09-24T09:25:30.111Z,12.70
2022-09-24T09:28:04.966Z,12.80
2022-09-24T09:30:43.865Z,12.90
2022-09-24T09:33:48.792Z,12.90
2022-09-24T09:36:41.457Z,13.00
2022-09-24T09:39:37.445Z,13.10
2022-09-24T09:42:24.318Z,13.30
2022-09-24T09:44:55.377Z,13.40
2022-09-24T09:47:40.998Z,13.40
2022-09-24T09:50:24.202Z,13.60
2022-09-24T09:52:54.865Z,13.60
2022-09-24T09:55:31.378Z,13.70
2022-09-24T09:58:23.046Z,13.80
2022-09-24T10:00:55.184Z,13.70
2022-09-24T10:03:29.158Z,13.80
2022-09-24T10:06:02.523Z,13.80
2022-09-24T10:08:33.584Z,13.80
2022-09-24T10:11:08.591Z,13.80
2022-09-24T10:13:39.071Z,13.90
2022-09-24T10:16:13.388Z,13.90
2022-09-24T10:18:49.541Z,13.90
2022-09-24T10:21:35.526Z,13.90
2022-09-24T10:24:09.535Z,13.90
2022-09-24T10:26:45.734Z,14.10
2022-09-24T10:29:32.696Z,14.10
2022-09-24T10:32:03.552Z,14.10
2022-09-24T10:34:34.300Z,14.10
2022-09-24T10:37:19.106Z,14.10
2022-09-24T10:40:00.068Z,14.20
2022-09-24T10:42:34.198Z,14.20
2022-09-24T10:45:05.289Z,14.20
2022-09-24T10:47:44.666Z,14.30
2022-09-24T10:50:30.307Z,14.30
2022-09-24T10:53:05.518Z,14.30
2022-09-24T10:55:55.532Z,14.30
2022-09-24T10:59:05.999Z,14.30
2022-09-24T11:01:45.256Z,14.40
2022-09-24T11:04:36.448Z,14.40
2022-09-24T11:07:48.040Z,14.50
2022-09-24T11:10:35.899Z,14.50
2022-09-24T11:13:16.847Z,14.50
2022-09-24T11:16:18.392Z,14.50
2022-09-24T11:18:59.768Z,14.60
2022-09-24T11:21:58.008Z,14.60
2022-09-24T11:24:49.399Z,14.60
2022-09-24T11:27:44.681Z,14.60
2022-09-24T11:30:19.446Z,14.70
2022-09-24T11:33:03.606Z,14.70
2022-09-24T11:35:59.960Z,14.80
2022-09-24T11:38:46.996Z,14.90
2022-09-24T11:41:32.494Z,14.90
2022-09-24T11:44:56.240Z,15.00
2022-09-24T11:47:47.632Z,15.10
2022-09-24T11:50:38.291Z,15.20
2022-09-24T11:53:15.687Z,15.20
2022-09-24T11:55:51.814Z,15.20
2022-09-24T11:58:29.773Z,15.20
2022-09-24T12:01:08.398Z,15.20
2022-09-24T12:03:45.424Z,15.30
2022-09-24T12:06:23.597Z,15.40
2022-09-24T12:09:02.038Z,15.30
2022-09-24T12:11:41.733Z,15.30
2022-09-24T12:14:18.071Z,15.40
2022-09-24T12:16:53.605Z,15.40
2022-09-24T12:19:28.866Z,15.40
2022-09-24T12:22:04.855Z,15.40
2022-09-24T12:24:39.566Z,15.40
2022-09-24T12:27:16.827Z,15.40
2022-09-24T12:30:07.502Z,15.30
2022-09-24T12:32:57.789Z,15.30
2022-09-24T12:35:47.517Z,15.30
2022-09-24T12:38:25.462Z,15.30
2022-09-24T12:41:30.282Z,15.30
2022-09-24T12:44:10.837Z,15.30
2022-09-24T12:46:45.210Z,15.40
2022-09-24T12:49:30.543Z,15.30
2022-09-24T12:52:02.943Z,15.40
2022-09-24T12:54:38.241Z,15.40
2022-09-24T12:57:11.660Z,15.40
2022-09-24T12:59:54.461Z,15.40
2022-09-24T13:02:28.495Z,15.40
2022-09-24T13:05:21.445Z,15.40
2022-09-24T13:08:06.732Z,15.40
2022-09-24T13:10:40.226Z,15.40
2022-09-24T13:13:27.003Z,15.40
2022-09-24T13:16:05.774Z,15.40
2022-09-24T13:18:39.248Z,15.40
2022-09-24T13:21:11.974Z,15.50
2022-09-24T13:23:50.737Z,15.50
2022-09-24T13:26:39.313Z,15.40
2022-09-24T13:29:25.642Z,15.40
2022-09-24T13:32:06.337Z,15.40
2022-09-24T13:34:37.375Z,15.40
2022-09-24T13:37:18.757Z,15.40
2022-09-24T13:39:53.742Z,15.40
2022-09-24T13:42:37.064Z,15.40
2022-09-24T13:45:12.952Z,15.50
2022-09-24T13:47:49.360Z,15.50
2022-09-24T13:50:25.691Z,15.50
2022-09-24T13:53:01.193Z,15.50
2022-09-24T13:55:36.742Z,15.50
2022-09-24T13:58:29.768Z,15.40
2022-09-24T14:01:02.796Z,15.40
2022-09-24T14:03:35.892Z,15.40
2022-09-24T14:06:15.005Z,15.40
2022-09-24T14:08:49.021Z,15.40
2022-09-24T14:11:24.448Z,15.40
2022-09-24T14:13:58.283Z,15.40
2022-09-24T14:16:29.586Z,15.40
2022-09-24T14:19:07.982Z,15.40
2022-09-24T14:21:43.187Z,15.40
2022-09-24T14:24:21.997Z,15.40
2022-09-24T14:26:56.653Z,15.40
2022-09-24T14:29:32.114Z,15.30
2022-09-24T14:32:04.271Z,15.30
2022-09-24T14:34:40.131Z,15.30
2022-09-24T14:37:14.602Z,15.40
2022-09-24T14:39:48.742Z,15.40
2022-09-24T14:42:27.109Z,15.40
2022-09-24T14:45:00.206Z,15.40
2022-09-24T14:47:33.036Z,15.40
2022-09-24T14:50:04.265Z,15.40
2022-09-24T14:52:37.889Z,15.30
2022-09-24T14:55:18.388Z,15.30
2022-09-24T14:57:55.257Z,15.30
2022-09-24T15:00:33.620Z,15.30
2022-09-24T15:03:07.317Z,15.30
2022-09-24T15:05:37.983Z,15.30
2022-09-24T15:08:30.374Z,15.30
2022-09-24T15:11:03.836Z,15.30
2022-09-24T15:13:36.583Z,15.30
2022-09-24T15:16:23.812Z,15.30
2022-09-24T15:19:11.430Z,15.20
2022-09-24T15:21:41.855Z,15.20
2022-09-24T15:24:12.232Z,15.30
2022-09-24T15:26:45.764Z,15.20
2022-09-24T15:29:24.546Z,15.20
2022-09-24T15:31:59.130Z,15.20
2022-09-24T15:34:29.541Z,15.20
2022-09-24T15:37:02.198Z,15.20
2022-09-24T15:39:33.667Z,15.20
2022-09-24T15:42:04.142Z,15.10
2022-09-24T15:44:34.508Z,15.10
2022-09-24T15:47:07.577Z,15.10
2022-09-24T15:49:37.758Z,15.10
2022-09-24T15:52:13.212Z,15.10
2022-09-24T15:54:43.836Z,15.10
2022-09-24T15:57:16.186Z,15.10
2022-09-24T15:59:46.517Z,15.10
2022-09-24T16:02:23.974Z,15.10
2022-09-24T16:04:54.214Z,15.00
2022-09-24T16:07:24.542Z,15.00
2022-09-24T16:09:55.477Z,15.00
2022-09-24T16:12:28.363Z,15.00
2022-09-24T16:15:00.732Z,15.00
2022-09-24T16:17:33.680Z,15.00
2022-09-24T16:20:04.966Z,14.90
2022-09-24T16:22:35.073Z,14.90
2022-09-24T16:25:05.427Z,14.90
2022-09-24T16:27:35.639Z,14.90
2022-09-24T16:30:06.697Z,14.90
2022-09-24T16:32:39.463Z,14.80
2022-09-24T16:35:11.352Z,14.80
2022-09-24T16:37:41.549Z,14.70
2022-09-24T16:40:13.618Z,14.80
2022-09-24T16:42:43.741Z,14.70
2022-09-24T16:45:15.670Z,14.70
2022-09-24T16:47:48.291Z,14.60
2022-09-24T16:50:20.297Z,14.60
2022-09-24T16:52:50.436Z,14.50
2022-09-24T16:55:20.873Z,14.50
2022-09-24T16:57:51.368Z,14.40
2022-09-24T17:00:22.317Z,14.40
2022-09-24T17:02:55.335Z,14.40
2022-09-24T17:05:25.790Z,14.40
2022-09-24T17:07:56.308Z,14.40
2022-09-24T17:10:24.480Z,14.30
2022-09-24T17:12:55.293Z,14.30
2022-09-24T17:15:25.976Z,14.20
2022-09-24T17:17:59.736Z,14.20
2022-09-24T17:20:31.900Z,14.20
2022-09-24T17:23:02.176Z,14.10
2022-09-24T17:25:32.386Z,14.10
2022-09-24T17:28:04.243Z,14.10
2022-09-24T17:30:34.558Z,14.10
2022-09-24T17:33:25.308Z,14.10
2022-09-24T17:35:58.837Z,14.00
2022-09-24T17:38:30.672Z,14.00
2022-09-24T17:41:03.781Z,14.00
2022-09-24T17:43:35.457Z,14.00
2022-09-24T17:46:13.583Z,14.00
2022-09-24T17:48:49.181Z,14.00
2022-09-24T17:51:22.221Z,13.90
2022-09-24T17:53:54.730Z,13.90
2022-09-24T17:56:28.451Z,13.90
2022-09-24T17:59:00.048Z,13.90
2022-09-24T18:01:33.839Z,13.90
2022-09-24T18:04:09.908Z,13.80
2022-09-24T18:06:42.216Z,13.80
2022-09-24T18:09:15.083Z,13.80
2022-09-24T18:11:47.942Z,13.80
2022-09-24T18:14:20.196Z,13.80
2022-09-24T18:16:51.072Z,13.70
2022-09-24T18:19:24.262Z,13.70
2022-09-24T18:21:56.245Z,13.70
2022-09-24T18:24:26.953Z,13.70
2022-09-24T18:26:57.283Z,13.60
2022-09-24T18:29:27.888Z,13.60
2022-09-24T18:31:58.417Z,13.60
2022-09-24T18:34:32.113Z,13.60
2022-09-24T18:37:02.929Z,13.60
2022-09-24T18:39:33.599Z,13.60
2022-09-24T18:42:04.036Z,13.60
2022-09-24T18:44:34.616Z,13.50
2022-09-24T18:47:04.844Z,13.50
2022-09-24T18:49:38.332Z,13.50
2022-09-24T18:52:08.590Z,13.50
2022-09-24T18:54:39.137Z,13.50
2022-09-24T18:57:09.570Z,13.50
2022-09-24T18:59:44.972Z,13.50
2022-09-24T19:02:16.153Z,13.40
2022-09-24T19:04:49.123Z,13.40
2022-09-24T19:07:19.395Z,13.40
2022-09-24T19:09:49.712Z,13.40
2022-09-24T19:12:20.044Z,13.40
2022-09-24T19:14:54.327Z,13.40
2022-09-24T19:17:24.699Z,13.40
2022-09-24T19:19:59.338Z,13.30
2022-09-24T19:22:29.434Z,13.40
2022-09-24T19:25:00.004Z,13.30
2022-09-24T19:27:30.464Z,13.40
2022-09-24T19:30:01.331Z,13.30
2022-09-24T19:32:32.176Z,13.30
2022-09-24T19:35:04.903Z,13.30
2022-09-24T19:37:35.515Z,13.30
2022-09-24T19:40:06.209Z,13.20
2022-09-24T19:42:36.441Z,13.20
2022-09-24T19:45:07.523Z,13.20
2022-09-24T19:47:37.929Z,13.20
2022-09-24T19:50:17.212Z,13.20
2022-09-24T19:52:49.008Z,13.10
2022-09-24T19:55:21.034Z,13.10
2022-09-24T19:57:53.094Z,13.10
2022-09-24T20:00:26.279Z,13.10
2022-09-24T20:02:57.007Z,13.10
2022-09-24T20:05:30.248Z,13.00
2022-09-24T20:08:00.773Z,13.00
2022-09-24T20:10:31.453Z,13.00
2022-09-24T20:13:01.861Z,13.00
2022-09-24T20:15:32.462Z,13.00
2022-09-24T20:18:02.856Z,12.90
2022-09-24T20:20:36.067Z,12.90
2022-09-24T20:23:08.231Z,12.90
2022-09-24T20:25:51.043Z,13.00
2022-09-24T20:28:21.372Z,13.00
2022-09-24T20:30:52.224Z,13.00
2022-09-24T20:33:22.799Z,13.00
2022-09-24T20:36:03.140Z,12.90
2022-09-24T20:38:33.974Z,12.90
2022-09-24T20:41:04.236Z,13.00
2022-09-24T20:43:36.981Z,13.00
2022-09-24T20:46:14.434Z,13.00
2022-09-24T20:48:45.111Z,13.00
2022-09-24T20:51:20.651Z,13.00
2022-09-24T20:53:53.191Z,13.00
2022-09-24T20:56:25.158Z,13.00
2022-09-24T20:58:59.479Z,13.00
2022-09-24T21:01:30.096Z,13.00
2022-09-24T21:04:00.622Z,12.90
2022-09-24T21:06:33.908Z,12.90
2022-09-24T21:09:04.377Z,12.90
2022-09-24T21:11:35.212Z,12.90
2022-09-24T21:14:05.824Z,12.90
2022-09-24T21:16:37.983Z,12.90
2022-09-24T21:19:09.526Z,12.90
2022-09-24T21:21:42.647Z,12.90
2022-09-24T21:24:16.339Z,12.90
2022-09-24T21:26:47.398Z,12.90
2022-09-24T21:29:20.988Z,12.90
2022-09-24T21:31:51.739Z,12.90
2022-09-24T21:34:23.514Z,12.80
2022-09-24T21:36:56.488Z,12.90
2022-09-24T21:39:29.135Z,12.80
2022-09-24T21:41:59.881Z,12.80
2022-09-24T21:44:34.406Z,12.80
2022-09-24T21:47:05.340Z,12.80
2022-09-24T21:49:36.918Z,12.80
2022-09-24T21:52:10.683Z,12.80
2022-09-24T21:54:40.901Z,12.80
2022-09-24T21:57:11.514Z,12.80
2022-09-24T21:59:54.224Z,12.80
2022-09-24T22:02:24.704Z,12.80
2022-09-24T22:04:55.225Z,12.80
2022-09-24T22:07:28.385Z,12.80
2022-09-24T22:09:58.879Z,12.80
2022-09-24T22:12:29.886Z,12.80
2022-09-24T22:15:00.233Z,12.80
2022-09-24T22:17:30.793Z,12.80
2022-09-24T22:20:01.145Z,12.80
2022-09-24T22:22:34.064Z,12.80
2022-09-24T22:25:04.395Z,12.80
2022-09-24T22:27:34.525Z,12.80
2022-09-24T22:30:05.052Z,12.70
2022-09-24T22:32:35.215Z,12.70
2022-09-24T22:35:18.029Z,12.70
2022-09-24T22:37:51.413Z,12.70
2022-09-24T22:40:21.857Z,12.70
2022-09-24T22:42:52.411Z,12.70
2022-09-24T22:45:22.625Z,12.70
2022-09-24T22:47:53.535Z,12.70
2022-09-24T22:50:23.873Z,12.70
2022-09-24T22:52:56.692Z,12.60
2022-09-24T22:55:26.961Z,12.70
2022-09-24T22:57:57.474Z,12.60
2022-09-24T23:00:27.781Z,12.60
2022-09-24T23:02:58.189Z,12.60
2022-09-24T23:05:29.767Z,12.70
2022-09-24T23:08:03.076Z,12.60
2022-09-24T23:10:33.272Z,12.60
2022-09-24T23:13:03.504Z,12.60
2022-09-24T23:15:35.071Z,12.60
2022-09-24T23:18:05.261Z,12.60
2022-09-24T23:20:35.601Z,12.60
2022-09-24T23:23:08.330Z,12.60
2022-09-24T23:25:38.419Z,12.60
2022-09-24T23:28:08.720Z,12.60
2022-09-24T23:30:39.133Z,12.60
2022-09-24T23:33:09.363Z,12.60
2022-09-24T23:35:39.623Z,12.60
2022-09-24T23:38:12.568Z,12.60
2022-09-24T23:40:42.980Z,12.60
2022-09-24T23:43:13.340Z,12.60
2022-09-24T23:45:43.541Z,12.60
2022-09-24T23:48:14.157Z,12.60
2022-09-24T23:50:46.408Z,12.60
2022-09-24T23:53:21.930Z,12.60
2022-09-24T23:55:54.187Z,12.60
2022-09-24T23:58:27.044Z,12.50
